sensor_id;sensor_type;location;lat;lon;timestamp;P1;durP1;ratioP1;P2;durP2;ratioP2
15553;SDS011;7878;44.632;10.942;2023-11-21T00:02:19;43.07;;;33.20;;
15553;SDS011;7878;44.632;10.942;2023-11-21T00:04:46;43.77;;;32.43;;
15553;SDS011;7878;44.632;10.942;2023-11-21T00:07:13;40.80;;;32.47;;
15553;SDS011;7878;44.632;10.942;2023-11-21T00:09:39;44.10;;;33.90;;
15553;SDS011;7878;44.632;10.942;2023-11-21T00:12:06;42.67;;;32.97;;
15553;SDS011;7878;44.632;10.942;2023-11-21T00:14:35;43.10;;;32.40;;
15553;SDS011;7878;44.632;10.942;2023-11-21T00:17:01;41.63;;;32.57;;
15553;SDS011;7878;44.632;10.942;2023-11-21T00:19:27;41.80;;;32.37;;
15553;SDS011;7878;44.632;10.942;2023-11-21T00:21:53;42.47;;;32.20;;
15553;SDS011;7878;44.632;10.942;2023-11-21T00:24:19;46.33;;;33.67;;
15553;SDS011;7878;44.632;10.942;2023-11-21T00:26:45;42.33;;;34.07;;
15553;SDS011;7878;44.632;10.942;2023-11-21T00:29:11;48.33;;;34.40;;
15553;SDS011;7878;44.632;10.942;2023-11-21T00:31:37;49.00;;;33.73;;
15553;SDS011;7878;44.632;10.942;2023-11-21T00:34:03;42.23;;;32.47;;
15553;SDS011;7878;44.632;10.942;2023-11-21T00:36:30;43.73;;;33.17;;
15553;SDS011;7878;44.632;10.942;2023-11-21T00:38:57;44.00;;;33.13;;
15553;SDS011;7878;44.632;10.942;2023-11-21T00:41:23;43.53;;;33.07;;
15553;SDS011;7878;44.632;10.942;2023-11-21T00:43:48;41.27;;;32.27;;
15553;SDS011;7878;44.632;10.942;2023-11-21T00:46:14;39.93;;;30.53;;
15553;SDS011;7878;44.632;10.942;2023-11-21T00:48:40;43.57;;;31.70;;
15553;SDS011;7878;44.632;10.942;2023-11-21T00:51:06;39.27;;;29.63;;
15553;SDS011;7878;44.632;10.942;2023-11-21T00:53:31;39.47;;;29.57;;
15553;SDS011;7878;44.632;10.942;2023-11-21T00:55:57;37.37;;;29.57;;
15553;SDS011;7878;44.632;10.942;2023-11-21T00:58:24;40.90;;;29.67;;
15553;SDS011;7878;44.632;10.942;2023-11-21T01:00:49;39.77;;;30.70;;
15553;SDS011;7878;44.632;10.942;2023-11-21T01:03:16;37.73;;;30.10;;
15553;SDS011;7878;44.632;10.942;2023-11-21T01:05:41;46.13;;;31.23;;
15553;SDS011;7878;44.632;10.942;2023-11-21T01:08:07;37.73;;;29.87;;
15553;SDS011;7878;44.632;10.942;2023-11-21T01:10:33;45.37;;;30.27;;
15553;SDS011;7878;44.632;10.942;2023-11-21T01:13:01;40.70;;;29.83;;
15553;SDS011;7878;44.632;10.942;2023-11-21T01:15:30;38.40;;;29.40;;
15553;SDS011;7878;44.632;10.942;2023-11-21T01:17:56;41.27;;;30.93;;
15553;SDS011;7878;44.632;10.942;2023-11-21T01:20:21;40.77;;;30.20;;
15553;SDS011;7878;44.632;10.942;2023-11-21T01:22:47;41.27;;;30.87;;
15553;SDS011;7878;44.632;10.942;2023-11-21T01:25:14;46.60;;;31.97;;
15553;SDS011;7878;44.632;10.942;2023-11-21T01:27:41;45.00;;;31.73;;
15553;SDS011;7878;44.632;10.942;2023-11-21T01:30:07;42.00;;;31.97;;
15553;SDS011;7878;44.632;10.942;2023-11-21T01:32:35;47.70;;;31.60;;
15553;SDS011;7878;44.632;10.942;2023-11-21T01:35:02;42.43;;;31.13;;
15553;SDS011;7878;44.632;10.942;2023-11-21T01:37:31;39.13;;;31.53;;
15553;SDS011;7878;44.632;10.942;2023-11-21T01:39:58;47.73;;;33.30;;
15553;SDS011;7878;44.632;10.942;2023-11-21T01:42:26;43.77;;;33.00;;
15553;SDS011;7878;44.632;10.942;2023-11-21T01:44:52;41.00;;;32.33;;
15553;SDS011;7878;44.632;10.942;2023-11-21T01:47:19;42.97;;;31.50;;
15553;SDS011;7878;44.632;10.942;2023-11-21T01:49:46;46.77;;;32.57;;
15553;SDS011;7878;44.632;10.942;2023-11-21T01:52:12;41.93;;;32.23;;
15553;SDS011;7878;44.632;10.942;2023-11-21T01:54:38;43.97;;;33.27;;
15553;SDS011;7878;44.632;10.942;2023-11-21T01:57:05;52.87;;;35.83;;
15553;SDS011;7878;44.632;10.942;2023-11-21T01:59:35;46.80;;;35.80;;
15553;SDS011;7878;44.632;10.942;2023-11-21T02:02:05;51.73;;;37.17;;
15553;SDS011;7878;44.632;10.942;2023-11-21T02:04:32;49.10;;;38.07;;
15553;SDS011;7878;44.632;10.942;2023-11-21T02:06:58;52.73;;;37.80;;
15553;SDS011;7878;44.632;10.942;2023-11-21T02:09:29;47.57;;;37.03;;
15553;SDS011;7878;44.632;10.942;2023-11-21T02:11:56;49.70;;;37.97;;
15553;SDS011;7878;44.632;10.942;2023-11-21T02:14:24;50.70;;;38.50;;
15553;SDS011;7878;44.632;10.942;2023-11-21T02:16:53;53.23;;;38.80;;
15553;SDS011;7878;44.632;10.942;2023-11-21T02:19:21;48.63;;;37.63;;
15553;SDS011;7878;44.632;10.942;2023-11-21T02:21:55;53.20;;;39.33;;
15553;SDS011;7878;44.632;10.942;2023-11-21T02:24:24;51.13;;;38.10;;
15553;SDS011;7878;44.632;10.942;2023-11-21T02:26:50;49.33;;;39.67;;
15553;SDS011;7878;44.632;10.942;2023-11-21T02:29:19;49.13;;;38.67;;
15553;SDS011;7878;44.632;10.942;2023-11-21T02:31:52;47.97;;;38.10;;
15553;SDS011;7878;44.632;10.942;2023-11-21T02:34:19;48.50;;;38.43;;
15553;SDS011;7878;44.632;10.942;2023-11-21T02:36:46;51.53;;;39.73;;
15553;SDS011;7878;44.632;10.942;2023-11-21T02:39:16;60.10;;;39.73;;
15553;SDS011;7878;44.632;10.942;2023-11-21T02:41:43;53.10;;;39.60;;
15553;SDS011;7878;44.632;10.942;2023-11-21T02:44:09;49.50;;;38.77;;
15553;SDS011;7878;44.632;10.942;2023-11-21T02:46:35;47.40;;;37.77;;
15553;SDS011;7878;44.632;10.942;2023-11-21T02:49:05;48.93;;;38.23;;
15553;SDS011;7878;44.632;10.942;2023-11-21T02:51:31;48.50;;;37.67;;
15553;SDS011;7878;44.632;10.942;2023-11-21T02:53:58;47.47;;;38.67;;
15553;SDS011;7878;44.632;10.942;2023-11-21T02:56:26;49.17;;;38.80;;
15553;SDS011;7878;44.632;10.942;2023-11-21T02:58:54;50.30;;;36.63;;
15553;SDS011;7878;44.632;10.942;2023-11-21T03:01:21;48.73;;;36.17;;
15553;SDS011;7878;44.632;10.942;2023-11-21T03:03:47;50.73;;;37.20;;
15553;SDS011;7878;44.632;10.942;2023-11-21T03:06:16;50.20;;;38.33;;
15553;SDS011;7878;44.632;10.942;2023-11-21T03:08:42;49.53;;;38.40;;
15553;SDS011;7878;44.632;10.942;2023-11-21T03:11:08;54.20;;;37.47;;
15553;SDS011;7878;44.632;10.942;2023-11-21T03:13:34;49.17;;;38.07;;
15553;SDS011;7878;44.632;10.942;2023-11-21T03:15:59;49.30;;;37.93;;
15553;SDS011;7878;44.632;10.942;2023-11-21T03:18:25;52.27;;;37.80;;
15553;SDS011;7878;44.632;10.942;2023-11-21T03:20:53;51.13;;;36.80;;
15553;SDS011;7878;44.632;10.942;2023-11-21T03:23:19;45.57;;;35.87;;
15553;SDS011;7878;44.632;10.942;2023-11-21T03:25:45;48.10;;;36.43;;
15553;SDS011;7878;44.632;10.942;2023-11-21T03:28:11;49.63;;;37.43;;
15553;SDS011;7878;44.632;10.942;2023-11-21T03:30:36;54.33;;;37.40;;
15553;SDS011;7878;44.632;10.942;2023-11-21T03:33:02;46.83;;;36.30;;
15553;SDS011;7878;44.632;10.942;2023-11-21T03:35:28;48.57;;;36.73;;
15553;SDS011;7878;44.632;10.942;2023-11-21T03:37:54;46.67;;;35.20;;
15553;SDS011;7878;44.632;10.942;2023-11-21T03:40:19;49.83;;;36.07;;
15553;SDS011;7878;44.632;10.942;2023-11-21T03:42:48;46.50;;;36.17;;
15553;SDS011;7878;44.632;10.942;2023-11-21T03:45:14;46.13;;;35.37;;
15553;SDS011;7878;44.632;10.942;2023-11-21T03:47:43;44.07;;;36.90;;
15553;SDS011;7878;44.632;10.942;2023-11-21T03:50:09;53.37;;;38.53;;
15553;SDS011;7878;44.632;10.942;2023-11-21T03:52:35;47.10;;;37.70;;
15553;SDS011;7878;44.632;10.942;2023-11-21T03:55:01;47.43;;;36.80;;
15553;SDS011;7878;44.632;10.942;2023-11-21T03:57:27;45.77;;;37.03;;
15553;SDS011;7878;44.632;10.942;2023-11-21T03:59:53;47.00;;;36.13;;
15553;SDS011;7878;44.632;10.942;2023-11-21T04:02:19;49.93;;;38.33;;
15553;SDS011;7878;44.632;10.942;2023-11-21T04:04:45;45.10;;;35.87;;
15553;SDS011;7878;44.632;10.942;2023-11-21T04:07:10;48.93;;;38.00;;
15553;SDS011;7878;44.632;10.942;2023-11-21T04:09:38;44.83;;;35.60;;
15553;SDS011;7878;44.632;10.942;2023-11-21T04:12:04;49.43;;;37.30;;
15553;SDS011;7878;44.632;10.942;2023-11-21T04:14:30;47.23;;;39.63;;
15553;SDS011;7878;44.632;10.942;2023-11-21T04:16:56;49.33;;;38.33;;
15553;SDS011;7878;44.632;10.942;2023-11-21T04:19:22;50.80;;;41.70;;
15553;SDS011;7878;44.632;10.942;2023-11-21T04:21:48;53.07;;;39.53;;
15553;SDS011;7878;44.632;10.942;2023-11-21T04:24:14;54.03;;;40.13;;
15553;SDS011;7878;44.632;10.942;2023-11-21T04:26:39;50.80;;;38.50;;
15553;SDS011;7878;44.632;10.942;2023-11-21T04:29:05;48.90;;;37.80;;
15553;SDS011;7878;44.632;10.942;2023-11-21T04:31:31;47.73;;;38.83;;
15553;SDS011;7878;44.632;10.942;2023-11-21T04:33:57;49.23;;;40.23;;
15553;SDS011;7878;44.632;10.942;2023-11-21T04:36:22;48.87;;;39.13;;
15553;SDS011;7878;44.632;10.942;2023-11-21T04:38:48;46.67;;;39.70;;
15553;SDS011;7878;44.632;10.942;2023-11-21T04:41:14;54.27;;;40.17;;
15553;SDS011;7878;44.632;10.942;2023-11-21T04:43:39;50.20;;;38.93;;
15553;SDS011;7878;44.632;10.942;2023-11-21T04:46:05;49.90;;;40.10;;
15553;SDS011;7878;44.632;10.942;2023-11-21T04:48:32;48.83;;;39.60;;
15553;SDS011;7878;44.632;10.942;2023-11-21T04:50:58;50.47;;;37.07;;
15553;SDS011;7878;44.632;10.942;2023-11-21T04:53:23;56.37;;;39.37;;
15553;SDS011;7878;44.632;10.942;2023-11-21T04:55:49;53.83;;;41.47;;
15553;SDS011;7878;44.632;10.942;2023-11-21T04:58:15;52.57;;;37.23;;
15553;SDS011;7878;44.632;10.942;2023-11-21T05:00:40;50.53;;;38.67;;
15553;SDS011;7878;44.632;10.942;2023-11-21T05:03:06;49.63;;;38.97;;
15553;SDS011;7878;44.632;10.942;2023-11-21T05:05:32;50.70;;;39.17;;
15553;SDS011;7878;44.632;10.942;2023-11-21T05:08:01;51.53;;;39.27;;
15553;SDS011;7878;44.632;10.942;2023-11-21T05:10:27;52.33;;;38.83;;
15553;SDS011;7878;44.632;10.942;2023-11-21T05:12:54;58.27;;;39.63;;
15553;SDS011;7878;44.632;10.942;2023-11-21T05:15:20;49.63;;;39.30;;
15553;SDS011;7878;44.632;10.942;2023-11-21T05:17:46;50.80;;;39.50;;
15553;SDS011;7878;44.632;10.942;2023-11-21T05:20:17;51.77;;;39.30;;
15553;SDS011;7878;44.632;10.942;2023-11-21T05:22:45;49.53;;;39.87;;
15553;SDS011;7878;44.632;10.942;2023-11-21T05:25:12;53.27;;;41.07;;
15553;SDS011;7878;44.632;10.942;2023-11-21T05:27:38;53.20;;;39.90;;
15553;SDS011;7878;44.632;10.942;2023-11-21T05:30:04;60.63;;;40.23;;
15553;SDS011;7878;44.632;10.942;2023-11-21T05:32:31;51.27;;;40.10;;
15553;SDS011;7878;44.632;10.942;2023-11-21T05:34:57;49.57;;;40.77;;
15553;SDS011;7878;44.632;10.942;2023-11-21T05:37:23;55.70;;;39.77;;
15553;SDS011;7878;44.632;10.942;2023-11-21T05:39:50;60.43;;;40.97;;
15553;SDS011;7878;44.632;10.942;2023-11-21T05:42:16;61.37;;;40.60;;
15553;SDS011;7878;44.632;10.942;2023-11-21T05:44:42;57.10;;;42.43;;
15553;SDS011;7878;44.632;10.942;2023-11-21T05:47:11;51.63;;;41.20;;
15553;SDS011;7878;44.632;10.942;2023-11-21T05:49:38;58.83;;;44.13;;
15553;SDS011;7878;44.632;10.942;2023-11-21T05:52:04;58.50;;;43.10;;
15553;SDS011;7878;44.632;10.942;2023-11-21T05:54:30;57.80;;;43.10;;
15553;SDS011;7878;44.632;10.942;2023-11-21T05:56:56;59.37;;;43.03;;
15553;SDS011;7878;44.632;10.942;2023-11-21T05:59:22;55.97;;;44.70;;
15553;SDS011;7878;44.632;10.942;2023-11-21T06:01:48;53.87;;;42.97;;
15553;SDS011;7878;44.632;10.942;2023-11-21T06:04:14;57.33;;;43.67;;
15553;SDS011;7878;44.632;10.942;2023-11-21T06:06:39;59.47;;;46.00;;
15553;SDS011;7878;44.632;10.942;2023-11-21T06:09:05;62.67;;;45.50;;
15553;SDS011;7878;44.632;10.942;2023-11-21T06:11:33;65.10;;;48.37;;
15553;SDS011;7878;44.632;10.942;2023-11-21T06:13:59;74.83;;;47.63;;
15553;SDS011;7878;44.632;10.942;2023-11-21T06:16:25;72.40;;;48.73;;
15553;SDS011;7878;44.632;10.942;2023-11-21T06:18:52;65.97;;;47.87;;
15553;SDS011;7878;44.632;10.942;2023-11-21T06:21:17;61.83;;;47.73;;
15553;SDS011;7878;44.632;10.942;2023-11-21T06:23:43;63.50;;;48.33;;
15553;SDS011;7878;44.632;10.942;2023-11-21T06:26:09;69.10;;;51.30;;
15553;SDS011;7878;44.632;10.942;2023-11-21T06:28:35;67.03;;;48.97;;
15553;SDS011;7878;44.632;10.942;2023-11-21T06:31:03;65.33;;;50.20;;
15553;SDS011;7878;44.632;10.942;2023-11-21T06:33:33;67.83;;;51.83;;
15553;SDS011;7878;44.632;10.942;2023-11-21T06:35:59;70.40;;;53.17;;
15553;SDS011;7878;44.632;10.942;2023-11-21T06:38:28;70.63;;;55.87;;
15553;SDS011;7878;44.632;10.942;2023-11-21T06:40:55;72.63;;;54.10;;
15553;SDS011;7878;44.632;10.942;2023-11-21T06:43:23;68.57;;;53.20;;
15553;SDS011;7878;44.632;10.942;2023-11-21T06:45:48;70.70;;;55.57;;
15553;SDS011;7878;44.632;10.942;2023-11-21T06:48:14;72.23;;;57.37;;
15553;SDS011;7878;44.632;10.942;2023-11-21T06:50:40;71.97;;;55.53;;
15553;SDS011;7878;44.632;10.942;2023-11-21T06:53:06;77.90;;;58.33;;
15553;SDS011;7878;44.632;10.942;2023-11-21T06:55:33;76.60;;;57.70;;
15553;SDS011;7878;44.632;10.942;2023-11-21T06:57:59;71.03;;;55.83;;
15553;SDS011;7878;44.632;10.942;2023-11-21T07:00:25;73.20;;;56.07;;
15553;SDS011;7878;44.632;10.942;2023-11-21T07:02:53;71.87;;;55.23;;
15553;SDS011;7878;44.632;10.942;2023-11-21T07:05:20;74.47;;;57.10;;
15553;SDS011;7878;44.632;10.942;2023-11-21T07:07:46;73.87;;;57.93;;
15553;SDS011;7878;44.632;10.942;2023-11-21T07:10:13;79.50;;;60.73;;
15553;SDS011;7878;44.632;10.942;2023-11-21T07:12:39;82.90;;;58.77;;
15553;SDS011;7878;44.632;10.942;2023-11-21T07:15:05;74.97;;;58.27;;
15553;SDS011;7878;44.632;10.942;2023-11-21T07:17:34;75.93;;;56.40;;
15553;SDS011;7878;44.632;10.942;2023-11-21T07:20:01;69.83;;;55.63;;
15553;SDS011;7878;44.632;10.942;2023-11-21T07:22:27;70.73;;;54.87;;
15553;SDS011;7878;44.632;10.942;2023-11-21T07:24:52;74.33;;;54.73;;
15553;SDS011;7878;44.632;10.942;2023-11-21T07:27:18;73.17;;;55.60;;
15553;SDS011;7878;44.632;10.942;2023-11-21T07:29:44;71.90;;;55.93;;
15553;SDS011;7878;44.632;10.942;2023-11-21T07:32:10;68.17;;;53.97;;
15553;SDS011;7878;44.632;10.942;2023-11-21T07:34:38;71.53;;;54.60;;
15553;SDS011;7878;44.632;10.942;2023-11-21T07:37:03;70.63;;;55.37;;
15553;SDS011;7878;44.632;10.942;2023-11-21T07:39:29;73.47;;;55.53;;
15553;SDS011;7878;44.632;10.942;2023-11-21T07:41:55;73.80;;;54.90;;
15553;SDS011;7878;44.632;10.942;2023-11-21T07:44:23;76.33;;;56.00;;
15553;SDS011;7878;44.632;10.942;2023-11-21T07:46:48;74.83;;;55.97;;
15553;SDS011;7878;44.632;10.942;2023-11-21T07:49:17;82.13;;;59.07;;
15553;SDS011;7878;44.632;10.942;2023-11-21T07:51:45;73.27;;;55.97;;
15553;SDS011;7878;44.632;10.942;2023-11-21T07:54:11;74.87;;;56.97;;
15553;SDS011;7878;44.632;10.942;2023-11-21T07:56:37;70.50;;;53.33;;
15553;SDS011;7878;44.632;10.942;2023-11-21T07:59:02;79.07;;;56.20;;
15553;SDS011;7878;44.632;10.942;2023-11-21T08:01:28;74.20;;;55.63;;
15553;SDS011;7878;44.632;10.942;2023-11-21T08:03:54;67.17;;;53.00;;
15553;SDS011;7878;44.632;10.942;2023-11-21T08:06:22;78.33;;;56.40;;
15553;SDS011;7878;44.632;10.942;2023-11-21T08:08:49;74.50;;;55.17;;
15553;SDS011;7878;44.632;10.942;2023-11-21T08:11:14;72.77;;;53.23;;
15553;SDS011;7878;44.632;10.942;2023-11-21T08:13:41;66.37;;;52.43;;
15553;SDS011;7878;44.632;10.942;2023-11-21T08:16:07;72.00;;;53.37;;
15553;SDS011;7878;44.632;10.942;2023-11-21T08:18:33;72.50;;;55.73;;
15553;SDS011;7878;44.632;10.942;2023-11-21T08:20:59;68.27;;;52.17;;
15553;SDS011;7878;44.632;10.942;2023-11-21T08:23:25;74.47;;;52.57;;
15553;SDS011;7878;44.632;10.942;2023-11-21T08:25:52;69.03;;;52.83;;
15553;SDS011;7878;44.632;10.942;2023-11-21T08:28:18;69.87;;;51.63;;
15553;SDS011;7878;44.632;10.942;2023-11-21T08:30:45;62.27;;;51.10;;
15553;SDS011;7878;44.632;10.942;2023-11-21T08:33:12;64.03;;;50.80;;
15553;SDS011;7878;44.632;10.942;2023-11-21T08:35:38;67.53;;;50.83;;
15553;SDS011;7878;44.632;10.942;2023-11-21T08:38:05;66.97;;;50.93;;
15553;SDS011;7878;44.632;10.942;2023-11-21T08:40:31;65.63;;;49.77;;
15553;SDS011;7878;44.632;10.942;2023-11-21T08:42:57;66.27;;;49.87;;
15553;SDS011;7878;44.632;10.942;2023-11-21T08:45:24;66.97;;;51.83;;
15553;SDS011;7878;44.632;10.942;2023-11-21T08:47:51;65.20;;;50.93;;
15553;SDS011;7878;44.632;10.942;2023-11-21T08:50:17;67.87;;;51.03;;
15553;SDS011;7878;44.632;10.942;2023-11-21T08:52:43;67.13;;;49.93;;
15553;SDS011;7878;44.632;10.942;2023-11-21T08:55:11;66.13;;;50.73;;
15553;SDS011;7878;44.632;10.942;2023-11-21T08:57:40;72.00;;;51.47;;
15553;SDS011;7878;44.632;10.942;2023-11-21T09:00:08;68.97;;;52.40;;
15553;SDS011;7878;44.632;10.942;2023-11-21T09:02:36;64.77;;;49.40;;
15553;SDS011;7878;44.632;10.942;2023-11-21T09:05:07;66.80;;;50.53;;
15553;SDS011;7878;44.632;10.942;2023-11-21T09:30:12;80.90;;;54.80;;
15553;SDS011;7878;44.632;10.942;2023-11-21T09:32:39;62.97;;;52.33;;
15553;SDS011;7878;44.632;10.942;2023-11-21T09:35:05;65.97;;;51.97;;
15553;SDS011;7878;44.632;10.942;2023-11-21T09:37:33;70.17;;;52.70;;
15553;SDS011;7878;44.632;10.942;2023-11-21T09:40:01;79.03;;;50.17;;
15553;SDS011;7878;44.632;10.942;2023-11-21T09:42:29;69.20;;;49.40;;
15553;SDS011;7878;44.632;10.942;2023-11-21T09:47:40;63.50;;;49.10;;
15553;SDS011;7878;44.632;10.942;2023-11-21T09:50:08;68.37;;;48.87;;
15553;SDS011;7878;44.632;10.942;2023-11-21T09:52:41;77.97;;;52.73;;
15553;SDS011;7878;44.632;10.942;2023-11-21T09:55:29;63.30;;;50.07;;
15553;SDS011;7878;44.632;10.942;2023-11-21T09:58:00;177.07;;;55.53;;
15553;SDS011;7878;44.632;10.942;2023-11-21T10:00:28;87.17;;;52.00;;
15553;SDS011;7878;44.632;10.942;2023-11-21T10:02:58;81.67;;;50.27;;
15553;SDS011;7878;44.632;10.942;2023-11-21T10:05:24;80.70;;;49.47;;
15553;SDS011;7878;44.632;10.942;2023-11-21T10:07:50;69.00;;;47.33;;
15553;SDS011;7878;44.632;10.942;2023-11-21T10:10:18;71.73;;;46.97;;
15553;SDS011;7878;44.632;10.942;2023-11-21T10:12:50;65.83;;;47.47;;
15553;SDS011;7878;44.632;10.942;2023-11-21T10:15:23;68.30;;;46.10;;
15553;SDS011;7878;44.632;10.942;2023-11-21T10:17:52;68.20;;;47.00;;
15553;SDS011;7878;44.632;10.942;2023-11-21T10:20:20;62.07;;;45.50;;
15553;SDS011;7878;44.632;10.942;2023-11-21T10:22:46;60.10;;;44.37;;
15553;SDS011;7878;44.632;10.942;2023-11-21T10:25:12;73.90;;;47.40;;
15553;SDS011;7878;44.632;10.942;2023-11-21T10:27:41;68.63;;;46.10;;
15553;SDS011;7878;44.632;10.942;2023-11-21T10:30:08;63.27;;;47.30;;
15553;SDS011;7878;44.632;10.942;2023-11-21T10:32:41;62.37;;;47.17;;
15553;SDS011;7878;44.632;10.942;2023-11-21T10:35:08;59.77;;;45.40;;
15553;SDS011;7878;44.632;10.942;2023-11-21T10:37:37;59.80;;;45.67;;
15553;SDS011;7878;44.632;10.942;2023-11-21T10:40:09;66.67;;;45.90;;
15553;SDS011;7878;44.632;10.942;2023-11-21T10:42:38;65.03;;;46.20;;
15553;SDS011;7878;44.632;10.942;2023-11-21T10:45:05;64.60;;;46.60;;
15553;SDS011;7878;44.632;10.942;2023-11-21T10:47:39;71.07;;;48.13;;
15553;SDS011;7878;44.632;10.942;2023-11-21T10:50:09;67.17;;;45.60;;
15553;SDS011;7878;44.632;10.942;2023-11-21T10:52:42;62.67;;;46.30;;
15553;SDS011;7878;44.632;10.942;2023-11-21T10:55:18;61.37;;;46.83;;
15553;SDS011;7878;44.632;10.942;2023-11-21T10:57:49;63.53;;;47.17;;
15553;SDS011;7878;44.632;10.942;2023-11-21T11:00:18;59.53;;;44.87;;
15553;SDS011;7878;44.632;10.942;2023-11-21T11:02:51;63.43;;;48.47;;
15553;SDS011;7878;44.632;10.942;2023-11-21T11:05:22;67.30;;;48.57;;
15553;SDS011;7878;44.632;10.942;2023-11-21T11:07:58;68.97;;;49.30;;
15553;SDS011;7878;44.632;10.942;2023-11-21T11:10:26;71.20;;;51.00;;
15553;SDS011;7878;44.632;10.942;2023-11-21T11:12:54;61.03;;;47.83;;
15553;SDS011;7878;44.632;10.942;2023-11-21T11:15:21;67.03;;;50.77;;
15553;SDS011;7878;44.632;10.942;2023-11-21T11:17:47;61.90;;;50.10;;
15553;SDS011;7878;44.632;10.942;2023-11-21T11:20:14;63.97;;;49.20;;
15553;SDS011;7878;44.632;10.942;2023-11-21T11:22:50;71.67;;;51.07;;
15553;SDS011;7878;44.632;10.942;2023-11-21T11:25:27;64.37;;;50.40;;
15553;SDS011;7878;44.632;10.942;2023-11-21T11:28:15;68.67;;;50.30;;
15553;SDS011;7878;44.632;10.942;2023-11-21T11:31:03;70.13;;;50.90;;
15553;SDS011;7878;44.632;10.942;2023-11-21T11:33:41;65.27;;;50.43;;
15553;SDS011;7878;44.632;10.942;2023-11-21T11:36:34;66.93;;;51.33;;
15553;SDS011;7878;44.632;10.942;2023-11-21T11:39:31;72.20;;;53.90;;
15553;SDS011;7878;44.632;10.942;2023-11-21T11:42:01;76.87;;;54.20;;
15553;SDS011;7878;44.632;10.942;2023-11-21T11:47:15;73.30;;;53.93;;
15553;SDS011;7878;44.632;10.942;2023-11-21T11:49:57;66.83;;;51.50;;
15553;SDS011;7878;44.632;10.942;2023-11-21T11:52:43;60.97;;;46.53;;
15553;SDS011;7878;44.632;10.942;2023-11-21T11:55:13;69.67;;;49.33;;
15553;SDS011;7878;44.632;10.942;2023-11-21T11:57:43;73.07;;;48.23;;
15553;SDS011;7878;44.632;10.942;2023-11-21T12:00:22;62.33;;;47.07;;
15553;SDS011;7878;44.632;10.942;2023-11-21T12:02:51;67.90;;;48.90;;
15553;SDS011;7878;44.632;10.942;2023-11-21T12:05:19;63.43;;;47.70;;
15553;SDS011;7878;44.632;10.942;2023-11-21T12:07:53;62.07;;;44.20;;
15553;SDS011;7878;44.632;10.942;2023-11-21T12:10:20;55.40;;;42.73;;
15553;SDS011;7878;44.632;10.942;2023-11-21T12:12:50;63.60;;;44.63;;
15553;SDS011;7878;44.632;10.942;2023-11-21T12:15:20;55.50;;;42.73;;
15553;SDS011;7878;44.632;10.942;2023-11-21T12:17:47;57.47;;;43.67;;
15553;SDS011;7878;44.632;10.942;2023-11-21T12:20:14;54.43;;;43.60;;
15553;SDS011;7878;44.632;10.942;2023-11-21T12:22:45;57.47;;;44.47;;
15553;SDS011;7878;44.632;10.942;2023-11-21T12:25:15;57.23;;;42.57;;
15553;SDS011;7878;44.632;10.942;2023-11-21T12:27:49;58.93;;;43.57;;
15553;SDS011;7878;44.632;10.942;2023-11-21T12:30:20;55.90;;;42.17;;
15553;SDS011;7878;44.632;10.942;2023-11-21T12:32:56;57.10;;;43.13;;
15553;SDS011;7878;44.632;10.942;2023-11-21T12:35:27;57.30;;;41.57;;
15553;SDS011;7878;44.632;10.942;2023-11-21T12:37:59;56.77;;;41.53;;
15553;SDS011;7878;44.632;10.942;2023-11-21T12:40:27;55.50;;;41.00;;
15553;SDS011;7878;44.632;10.942;2023-11-21T12:42:55;58.90;;;42.90;;
15553;SDS011;7878;44.632;10.942;2023-11-21T12:45:23;55.27;;;41.10;;
15553;SDS011;7878;44.632;10.942;2023-11-21T12:47:59;55.90;;;41.27;;
15553;SDS011;7878;44.632;10.942;2023-11-21T12:50:28;56.13;;;43.30;;
15553;SDS011;7878;44.632;10.942;2023-11-21T12:53:09;62.70;;;44.00;;
15553;SDS011;7878;44.632;10.942;2023-11-21T12:55:39;58.93;;;42.77;;
15553;SDS011;7878;44.632;10.942;2023-11-21T12:58:07;56.53;;;42.43;;
15553;SDS011;7878;44.632;10.942;2023-11-21T13:00:38;56.97;;;43.57;;
15553;SDS011;7878;44.632;10.942;2023-11-21T13:03:07;60.80;;;44.30;;
15553;SDS011;7878;44.632;10.942;2023-11-21T13:05:36;58.67;;;43.03;;
15553;SDS011;7878;44.632;10.942;2023-11-21T13:08:09;59.00;;;42.57;;
15553;SDS011;7878;44.632;10.942;2023-11-21T13:10:38;61.70;;;45.27;;
15553;SDS011;7878;44.632;10.942;2023-11-21T13:13:07;58.50;;;43.87;;
15553;SDS011;7878;44.632;10.942;2023-11-21T13:15:38;58.70;;;43.13;;
15553;SDS011;7878;44.632;10.942;2023-11-21T13:18:05;62.77;;;46.13;;
15553;SDS011;7878;44.632;10.942;2023-11-21T13:20:32;64.13;;;45.93;;
15553;SDS011;7878;44.632;10.942;2023-11-21T13:22:58;62.07;;;45.60;;
15553;SDS011;7878;44.632;10.942;2023-11-21T13:25:26;63.13;;;45.77;;
15553;SDS011;7878;44.632;10.942;2023-11-21T13:27:55;57.83;;;41.90;;
15553;SDS011;7878;44.632;10.942;2023-11-21T13:30:21;58.90;;;42.93;;
15553;SDS011;7878;44.632;10.942;2023-11-21T13:32:52;56.90;;;43.10;;
15553;SDS011;7878;44.632;10.942;2023-11-21T13:35:22;53.67;;;40.67;;
15553;SDS011;7878;44.632;10.942;2023-11-21T13:37:56;52.73;;;40.33;;
15553;SDS011;7878;44.632;10.942;2023-11-21T13:40:25;56.63;;;40.90;;
15553;SDS011;7878;44.632;10.942;2023-11-21T13:42:55;51.00;;;40.13;;
15553;SDS011;7878;44.632;10.942;2023-11-21T13:45:24;53.93;;;41.57;;
15553;SDS011;7878;44.632;10.942;2023-11-21T13:47:51;56.47;;;42.37;;
15553;SDS011;7878;44.632;10.942;2023-11-21T13:50:22;52.93;;;42.50;;
15553;SDS011;7878;44.632;10.942;2023-11-21T13:52:54;57.00;;;41.33;;
15553;SDS011;7878;44.632;10.942;2023-11-21T13:55:19;56.67;;;41.70;;
15553;SDS011;7878;44.632;10.942;2023-11-21T13:57:49;65.67;;;42.33;;
15553;SDS011;7878;44.632;10.942;2023-11-21T14:00:16;57.80;;;41.70;;
15553;SDS011;7878;44.632;10.942;2023-11-21T14:03:01;57.80;;;40.57;;
15553;SDS011;7878;44.632;10.942;2023-11-21T14:05:35;54.93;;;40.43;;
15553;SDS011;7878;44.632;10.942;2023-11-21T14:08:01;54.27;;;40.73;;
15553;SDS011;7878;44.632;10.942;2023-11-21T14:10:30;56.27;;;40.07;;
15553;SDS011;7878;44.632;10.942;2023-11-21T14:13:11;51.73;;;39.83;;
15553;SDS011;7878;44.632;10.942;2023-11-21T14:15:38;53.97;;;39.90;;
15553;SDS011;7878;44.632;10.942;2023-11-21T14:18:08;58.27;;;39.50;;
15553;SDS011;7878;44.632;10.942;2023-11-21T14:20:39;57.50;;;41.60;;
15553;SDS011;7878;44.632;10.942;2023-11-21T14:23:06;56.63;;;42.23;;
15553;SDS011;7878;44.632;10.942;2023-11-21T14:25:34;52.97;;;40.87;;
15553;SDS011;7878;44.632;10.942;2023-11-21T14:28:05;56.97;;;40.90;;
15553;SDS011;7878;44.632;10.942;2023-11-21T14:30:34;55.43;;;42.23;;
15553;SDS011;7878;44.632;10.942;2023-11-21T14:33:00;52.93;;;40.47;;
15553;SDS011;7878;44.632;10.942;2023-11-21T14:35:27;61.33;;;45.77;;
15553;SDS011;7878;44.632;10.942;2023-11-21T14:37:55;54.10;;;40.20;;
15553;SDS011;7878;44.632;10.942;2023-11-21T14:40:21;50.63;;;39.77;;
15553;SDS011;7878;44.632;10.942;2023-11-21T14:42:49;53.77;;;39.07;;
15553;SDS011;7878;44.632;10.942;2023-11-21T14:45:18;50.97;;;39.10;;
15553;SDS011;7878;44.632;10.942;2023-11-21T14:47:45;52.50;;;40.80;;
15553;SDS011;7878;44.632;10.942;2023-11-21T14:50:21;54.43;;;40.87;;
15553;SDS011;7878;44.632;10.942;2023-11-21T14:53:05;59.87;;;42.03;;
15553;SDS011;7878;44.632;10.942;2023-11-21T14:55:34;53.67;;;41.17;;